sensor_id;sensor_type;location;lat;lon;timestamp;temperature;humidity
68354;DHT22;55274;43.060;25.618;2023-03-14T00:00:30;2.50;84.00
68354;DHT22;55274;43.060;25.618;2023-03-14T00:09:42;2.80;86.00
68354;DHT22;55274;43.060;25.618;2023-03-14T00:12:23;2.80;86.10
68354;DHT22;55274;43.060;25.618;2023-03-14T00:14:57;2.80;86.60
68354;DHT22;55274;43.060;25.618;2023-03-14T00:17:26;2.70;87.20
68354;DHT22;55274;43.060;25.618;2023-03-14T00:19:54;2.70;88.00
68354;DHT22;55274;43.060;25.618;2023-03-14T00:22:50;2.60;88.40
68354;DHT22;55274;43.060;25.618;2023-03-14T00:25:27;2.50;87.70
68354;DHT22;55274;43.060;25.618;2023-03-14T00:27:55;2.50;86.80
68354;DHT22;55274;43.060;25.618;2023-03-14T00:30:24;2.50;87.40
68354;DHT22;55274;43.060;25.618;2023-03-14T00:33:43;2.50;87.00
68354;DHT22;55274;43.060;25.618;2023-03-14T00:36:38;2.50;88.40
68354;DHT22;55274;43.060;25.618;2023-03-14T00:39:22;2.40;88.00
68354;DHT22;55274;43.060;25.618;2023-03-14T00:41:50;2.40;87.20
68354;DHT22;55274;43.060;25.618;2023-03-14T00:44:42;2.40;86.90
68354;DHT22;55274;43.060;25.618;2023-03-14T00:54:57;2.50;85.70
68354;DHT22;55274;43.060;25.618;2023-03-14T00:58:21;2.40;86.10
68354;DHT22;55274;43.060;25.618;2023-03-14T01:01:19;2.30;87.90
68354;DHT22;55274;43.060;25.618;2023-03-14T01:06:52;2.20;88.00
68354;DHT22;55274;43.060;25.618;2023-03-14T01:09:57;2.20;88.00
68354;DHT22;55274;43.060;25.618;2023-03-14T01:13:05;2.20;87.40
68354;DHT22;55274;43.060;25.618;2023-03-14T01:15:49;2.20;86.60
68354;DHT22;55274;43.060;25.618;2023-03-14T01:18:22;2.20;86.30
68354;DHT22;55274;43.060;25.618;2023-03-14T01:21:38;2.20;86.50
68354;DHT22;55274;43.060;25.618;2023-03-14T01:24:20;2.10;86.70
68354;DHT22;55274;43.060;25.618;2023-03-14T01:26:54;2.00;86.90
68354;DHT22;55274;43.060;25.618;2023-03-14T01:29:26;1.90;87.90
68354;DHT22;55274;43.060;25.618;2023-03-14T01:36:18;1.80;88.80
68354;DHT22;55274;43.060;25.618;2023-03-14T01:38:53;1.80;88.10
68354;DHT22;55274;43.060;25.618;2023-03-14T01:41:51;1.80;87.90
68354;DHT22;55274;43.060;25.618;2023-03-14T01:51:28;1.70;88.80
68354;DHT22;55274;43.060;25.618;2023-03-14T01:54:44;1.80;88.80
68354;DHT22;55274;43.060;25.618;2023-03-14T02:00:01;1.60;89.80
68354;DHT22;55274;43.060;25.618;2023-03-14T02:02:31;1.60;90.20
68354;DHT22;55274;43.060;25.618;2023-03-14T02:05:28;1.60;90.20
68354;DHT22;55274;43.060;25.618;2023-03-14T02:08:08;1.60;89.50
68354;DHT22;55274;43.060;25.618;2023-03-14T02:10:55;1.60;88.30
68354;DHT22;55274;43.060;25.618;2023-03-14T02:13:25;1.90;87.40
68354;DHT22;55274;43.060;25.618;2023-03-14T02:15:51;1.60;87.50
68354;DHT22;55274;43.060;25.618;2023-03-14T02:18:22;1.60;88.60
68354;DHT22;55274;43.060;25.618;2023-03-14T02:29:35;1.40;88.80
68354;DHT22;55274;43.060;25.618;2023-03-14T02:32:02;1.30;89.40
68354;DHT22;55274;43.060;25.618;2023-03-14T02:34:34;1.30;89.60
68354;DHT22;55274;43.060;25.618;2023-03-14T02:37:07;1.20;89.30
68354;DHT22;55274;43.060;25.618;2023-03-14T02:39:40;1.10;89.50
68354;DHT22;55274;43.060;25.618;2023-03-14T02:42:20;1.20;89.30
68354;DHT22;55274;43.060;25.618;2023-03-14T02:47:59;1.20;89.00
68354;DHT22;55274;43.060;25.618;2023-03-14T02:50:32;1.50;89.90
68354;DHT22;55274;43.060;25.618;2023-03-14T02:52:59;1.00;90.00
68354;DHT22;55274;43.060;25.618;2023-03-14T02:55:26;1.10;89.90
68354;DHT22;55274;43.060;25.618;2023-03-14T02:57:52;1.20;89.30
68354;DHT22;55274;43.060;25.618;2023-03-14T03:00:21;1.10;89.10
68354;DHT22;55274;43.060;25.618;2023-03-14T03:02:53;1.00;88.80
68354;DHT22;55274;43.060;25.618;2023-03-14T03:05:22;1.10;89.80
68354;DHT22;55274;43.060;25.618;2023-03-14T03:07:48;1.10;88.70
68354;DHT22;55274;43.060;25.618;2023-03-14T03:10:21;1.00;88.50
68354;DHT22;55274;43.060;25.618;2023-03-14T03:12:50;1.00;88.50
68354;DHT22;55274;43.060;25.618;2023-03-14T03:15:20;1.00;88.80
68354;DHT22;55274;43.060;25.618;2023-03-14T03:17:46;0.50;89.60
68354;DHT22;55274;43.060;25.618;2023-03-14T03:20:14;1.00;89.30
68354;DHT22;55274;43.060;25.618;2023-03-14T03:22:53;0.90;89.70
68354;DHT22;55274;43.060;25.618;2023-03-14T03:25:22;0.90;89.70
68354;DHT22;55274;43.060;25.618;2023-03-14T03:27:48;1.00;89.30
68354;DHT22;55274;43.060;25.618;2023-03-14T03:30:24;0.90;88.80
68354;DHT22;55274;43.060;25.618;2023-03-14T03:32:50;0.90;89.30
68354;DHT22;55274;43.060;25.618;2023-03-14T03:35:21;0.80;89.20
68354;DHT22;55274;43.060;25.618;2023-03-14T03:38:05;0.70;90.00
68354;DHT22;55274;43.060;25.618;2023-03-14T03:40:34;0.70;89.90
68354;DHT22;55274;43.060;25.618;2023-03-14T03:43:00;0.80;90.30
68354;DHT22;55274;43.060;25.618;2023-03-14T03:45:26;0.70;89.30
68354;DHT22;55274;43.060;25.618;2023-03-14T03:47:55;0.70;89.10
68354;DHT22;55274;43.060;25.618;2023-03-14T03:50:23;0.80;89.20
68354;DHT22;55274;43.060;25.618;2023-03-14T03:52:50;0.80;89.30
68354;DHT22;55274;43.060;25.618;2023-03-14T03:55:18;0.80;89.70
68354;DHT22;55274;43.060;25.618;2023-03-14T03:57:47;0.80;89.70
68354;DHT22;55274;43.060;25.618;2023-03-14T04:00:13;1.10;89.80
68354;DHT22;55274;43.060;25.618;2023-03-14T04:02:40;0.70;89.50
68354;DHT22;55274;43.060;25.618;2023-03-14T04:05:06;0.70;89.70
68354;DHT22;55274;43.060;25.618;2023-03-14T04:07:35;0.70;89.90
68354;DHT22;55274;43.060;25.618;2023-03-14T04:10:01;0.70;90.30
68354;DHT22;55274;43.060;25.618;2023-03-14T04:12:27;0.60;91.20
68354;DHT22;55274;43.060;25.618;2023-03-14T04:14:53;0.60;91.60
68354;DHT22;55274;43.060;25.618;2023-03-14T04:17:22;0.80;92.40
68354;DHT22;55274;43.060;25.618;2023-03-14T04:19:48;0.50;91.90
68354;DHT22;55274;43.060;25.618;2023-03-14T04:22:19;0.50;91.10
68354;DHT22;55274;43.060;25.618;2023-03-14T04:24:48;0.70;91.60
68354;DHT22;55274;43.060;25.618;2023-03-14T04:27:14;0.40;90.90
68354;DHT22;55274;43.060;25.618;2023-03-14T04:29:42;0.40;91.40
68354;DHT22;55274;43.060;25.618;2023-03-14T04:32:08;0.40;91.50
68354;DHT22;55274;43.060;25.618;2023-03-14T04:34:55;0.40;91.50
68354;DHT22;55274;43.060;25.618;2023-03-14T04:37:30;0.50;91.40
68354;DHT22;55274;43.060;25.618;2023-03-14T04:40:01;0.50;91.20
68354;DHT22;55274;43.060;25.618;2023-03-14T04:42:29;0.50;91.30
68354;DHT22;55274;43.060;25.618;2023-03-14T04:44:56;0.50;91.40
68354;DHT22;55274;43.060;25.618;2023-03-14T04:47:26;0.60;91.60
68354;DHT22;55274;43.060;25.618;2023-03-14T04:49:58;0.60;91.50
68354;DHT22;55274;43.060;25.618;2023-03-14T04:52:25;0.60;91.90
68354;DHT22;55274;43.060;25.618;2023-03-14T04:54:52;0.60;91.80
68354;DHT22;55274;43.060;25.618;2023-03-14T04:57:21;0.70;91.60
68354;DHT22;55274;43.060;25.618;2023-03-14T04:59:48;0.80;91.00
68354;DHT22;55274;43.060;25.618;2023-03-14T05:02:14;0.80;90.20
68354;DHT22;55274;43.060;25.618;2023-03-14T05:04:41;1.00;90.20
68354;DHT22;55274;43.060;25.618;2023-03-14T05:07:09;0.90;91.60
68354;DHT22;55274;43.060;25.618;2023-03-14T05:09:35;1.00;92.00
68354;DHT22;55274;43.060;25.618;2023-03-14T05:12:02;0.90;92.80
68354;DHT22;55274;43.060;25.618;2023-03-14T05:14:28;0.90;92.10
68354;DHT22;55274;43.060;25.618;2023-03-14T05:16:54;1.00;91.90
68354;DHT22;55274;43.060;25.618;2023-03-14T05:19:20;1.00;91.50
68354;DHT22;55274;43.060;25.618;2023-03-14T05:21:46;1.20;91.80
68354;DHT22;55274;43.060;25.618;2023-03-14T05:24:12;1.20;92.10
68354;DHT22;55274;43.060;25.618;2023-03-14T05:26:38;1.30;92.10
68354;DHT22;55274;43.060;25.618;2023-03-14T05:29:04;1.40;91.70
68354;DHT22;55274;43.060;25.618;2023-03-14T05:31:29;1.40;91.50
68354;DHT22;55274;43.060;25.618;2023-03-14T05:33:58;1.40;90.30
68354;DHT22;55274;43.060;25.618;2023-03-14T05:36:27;1.50;89.30
68354;DHT22;55274;43.060;25.618;2023-03-14T05:38:53;1.60;88.60
68354;DHT22;55274;43.060;25.618;2023-03-14T05:41:19;1.70;88.10
68354;DHT22;55274;43.060;25.618;2023-03-14T05:43:49;2.20;88.10
68354;DHT22;55274;43.060;25.618;2023-03-14T05:46:22;3.10;86.10
68354;DHT22;55274;43.060;25.618;2023-03-14T05:48:48;4.00;85.00
68354;DHT22;55274;43.060;25.618;2023-03-14T05:51:15;4.80;79.80
68354;DHT22;55274;43.060;25.618;2023-03-14T05:53:46;5.20;76.80
68354;DHT22;55274;43.060;25.618;2023-03-14T05:56:13;6.10;74.60
68354;DHT22;55274;43.060;25.618;2023-03-14T05:58:51;6.70;72.10
68354;DHT22;55274;43.060;25.618;2023-03-14T06:01:26;7.10;69.90
68354;DHT22;55274;43.060;25.618;2023-03-14T06:04:28;6.80;68.30
68354;DHT22;55274;43.060;25.618;2023-03-14T06:06:55;7.00;68.70
68354;DHT22;55274;43.060;25.618;2023-03-14T06:09:21;7.20;68.00
68354;DHT22;55274;43.060;25.618;2023-03-14T06:11:49;7.40;67.30
68354;DHT22;55274;43.060;25.618;2023-03-14T06:14:15;8.00;68.20
68354;DHT22;55274;43.060;25.618;2023-03-14T06:16:40;8.50;65.00
68354;DHT22;55274;43.060;25.618;2023-03-14T06:19:06;8.90;64.60
68354;DHT22;55274;43.060;25.618;2023-03-14T06:21:32;9.50;64.70
68354;DHT22;55274;43.060;25.618;2023-03-14T06:23:58;10.30;62.10
68354;DHT22;55274;43.060;25.618;2023-03-14T06:26:23;10.60;60.90
68354;DHT22;55274;43.060;25.618;2023-03-14T06:28:49;11.50;58.70
68354;DHT22;55274;43.060;25.618;2023-03-14T06:31:17;12.30;55.00
68354;DHT22;55274;43.060;25.618;2023-03-14T06:33:42;12.70;54.00
68354;DHT22;55274;43.060;25.618;2023-03-14T06:36:08;13.00;53.80
68354;DHT22;55274;43.060;25.618;2023-03-14T06:38:34;13.30;51.70
68354;DHT22;55274;43.060;25.618;2023-03-14T06:41:07;13.20;49.20
68354;DHT22;55274;43.060;25.618;2023-03-14T06:43:32;13.30;50.60
68354;DHT22;55274;43.060;25.618;2023-03-14T06:45:58;13.60;49.30
68354;DHT22;55274;43.060;25.618;2023-03-14T06:48:24;13.20;49.40
68354;DHT22;55274;43.060;25.618;2023-03-14T06:50:50;12.90;50.50
68354;DHT22;55274;43.060;25.618;2023-03-14T06:53:15;12.60;50.10
68354;DHT22;55274;43.060;25.618;2023-03-14T06:55:41;12.40;50.10
68354;DHT22;55274;43.060;25.618;2023-03-14T06:58:08;12.10;49.10
68354;DHT22;55274;43.060;25.618;2023-03-14T07:00:34;12.40;48.10
68354;DHT22;55274;43.060;25.618;2023-03-14T07:03:01;12.80;48.50
68354;DHT22;55274;43.060;25.618;2023-03-14T07:05:26;13.10;48.10
68354;DHT22;55274;43.060;25.618;2023-03-14T07:07:52;13.00;47.80
68354;DHT22;55274;43.060;25.618;2023-03-14T07:10:18;13.40;48.70
68354;DHT22;55274;43.060;25.618;2023-03-14T07:12:44;13.50;48.70
68354;DHT22;55274;43.060;25.618;2023-03-14T07:15:13;13.20;48.40
68354;DHT22;55274;43.060;25.618;2023-03-14T07:17:45;13.20;48.60
68354;DHT22;55274;43.060;25.618;2023-03-14T07:20:12;13.10;48.80
68354;DHT22;55274;43.060;25.618;2023-03-14T07:22:38;13.20;49.00
68354;DHT22;55274;43.060;25.618;2023-03-14T07:25:04;13.50;48.70
68354;DHT22;55274;43.060;25.618;2023-03-14T07:27:31;13.60;47.90
68354;DHT22;55274;43.060;25.618;2023-03-14T07:29:56;14.00;47.70
68354;DHT22;55274;43.060;25.618;2023-03-14T07:32:22;14.10;47.80
68354;DHT22;55274;43.060;25.618;2023-03-14T07:34:48;14.40;46.30
68354;DHT22;55274;43.060;25.618;2023-03-14T07:37:14;15.00;43.80
68354;DHT22;55274;43.060;25.618;2023-03-14T07:39:40;15.10;44.00
68354;DHT22;55274;43.060;25.618;2023-03-14T07:42:05;15.30;41.40
68354;DHT22;55274;43.060;25.618;2023-03-14T07:44:32;15.50;40.90
68354;DHT22;55274;43.060;25.618;2023-03-14T07:46:58;15.80;39.60
68354;DHT22;55274;43.060;25.618;2023-03-14T07:49:24;16.00;38.70
68354;DHT22;55274;43.060;25.618;2023-03-14T07:51:50;16.20;38.30
68354;DHT22;55274;43.060;25.618;2023-03-14T07:54:16;16.40;37.10
68354;DHT22;55274;43.060;25.618;2023-03-14T07:56:42;16.30;36.70
68354;DHT22;55274;43.060;25.618;2023-03-14T07:59:07;16.30;37.50
68354;DHT22;55274;43.060;25.618;2023-03-14T08:01:33;16.20;35.80
68354;DHT22;55274;43.060;25.618;2023-03-14T08:03:59;16.40;34.90
68354;DHT22;55274;43.060;25.618;2023-03-14T08:06:25;16.50;35.70
68354;DHT22;55274;43.060;25.618;2023-03-14T08:08:51;16.60;34.50
68354;DHT22;55274;43.060;25.618;2023-03-14T08:11:17;16.70;35.40
68354;DHT22;55274;43.060;25.618;2023-03-14T08:13:43;17.10;33.90
68354;DHT22;55274;43.060;25.618;2023-03-14T08:16:16;17.30;33.50
68354;DHT22;55274;43.060;25.618;2023-03-14T08:18:43;17.40;33.70
68354;DHT22;55274;43.060;25.618;2023-03-14T08:21:09;17.80;34.00
68354;DHT22;55274;43.060;25.618;2023-03-14T08:23:35;17.80;32.30
68354;DHT22;55274;43.060;25.618;2023-03-14T08:26:01;18.10;32.20
68354;DHT22;55274;43.060;25.618;2023-03-14T08:28:27;18.10;31.60
68354;DHT22;55274;43.060;25.618;2023-03-14T08:30:56;18.10;31.60
68354;DHT22;55274;43.060;25.618;2023-03-14T08:33:23;18.30;30.20
68354;DHT22;55274;43.060;25.618;2023-03-14T08:35:54;18.70;30.50
68354;DHT22;55274;43.060;25.618;2023-03-14T08:38:20;18.70;28.60
68354;DHT22;55274;43.060;25.618;2023-03-14T08:40:46;18.90;29.30
68354;DHT22;55274;43.060;25.618;2023-03-14T08:43:12;19.00;29.40
68354;DHT22;55274;43.060;25.618;2023-03-14T08:45:38;19.20;28.10
68354;DHT22;55274;43.060;25.618;2023-03-14T08:48:04;19.20;27.40
68354;DHT22;55274;43.060;25.618;2023-03-14T08:50:30;19.20;27.40
68354;DHT22;55274;43.060;25.618;2023-03-14T08:52:56;19.20;27.00
68354;DHT22;55274;43.060;25.618;2023-03-14T08:55:25;18.70;27.90
68354;DHT22;55274;43.060;25.618;2023-03-14T08:57:53;18.70;28.10
68354;DHT22;55274;43.060;25.618;2023-03-14T09:00:19;19.20;27.70
68354;DHT22;55274;43.060;25.618;2023-03-14T09:02:46;19.30;26.80
68354;DHT22;55274;43.060;25.618;2023-03-14T09:05:12;19.20;27.40
68354;DHT22;55274;43.060;25.618;2023-03-14T09:07:39;19.30;25.60
68354;DHT22;55274;43.060;25.618;2023-03-14T09:10:06;19.60;26.40
68354;DHT22;55274;43.060;25.618;2023-03-14T09:12:33;20.00;25.80
68354;DHT22;55274;43.060;25.618;2023-03-14T09:14:58;19.80;24.70
68354;DHT22;55274;43.060;25.618;2023-03-14T09:17:24;19.80;26.20
68354;DHT22;55274;43.060;25.618;2023-03-14T09:19:50;19.70;24.70
68354;DHT22;55274;43.060;25.618;2023-03-14T09:22:16;19.90;25.40
68354;DHT22;55274;43.060;25.618;2023-03-14T09:24:42;20.20;25.40
68354;DHT22;55274;43.060;25.618;2023-03-14T09:27:07;20.40;23.90
68354;DHT22;55274;43.060;25.618;2023-03-14T09:29:34;20.70;24.70
68354;DHT22;55274;43.060;25.618;2023-03-14T09:32:00;20.50;23.50
68354;DHT22;55274;43.060;25.618;2023-03-14T09:34:26;21.00;24.70
68354;DHT22;55274;43.060;25.618;2023-03-14T09:36:52;21.20;24.00
68354;DHT22;55274;43.060;25.618;2023-03-14T09:39:19;21.20;22.30
68354;DHT22;55274;43.060;25.618;2023-03-14T09:41:47;21.40;23.10
68354;DHT22;55274;43.060;25.618;2023-03-14T09:44:24;21.20;22.50
68354;DHT22;55274;43.060;25.618;2023-03-14T09:46:53;21.30;21.70
68354;DHT22;55274;43.060;25.618;2023-03-14T09:49:32;20.90;21.90
68354;DHT22;55274;43.060;25.618;2023-03-14T09:52:05;21.10;22.70
68354;DHT22;55274;43.060;25.618;2023-03-14T09:54:37;21.30;23.00
68354;DHT22;55274;43.060;25.618;2023-03-14T09:57:06;21.60;21.80
68354;DHT22;55274;43.060;25.618;2023-03-14T09:59:37;21.50;23.10
68354;DHT22;55274;43.060;25.618;2023-03-14T10:02:22;21.10;24.20
68354;DHT22;55274;43.060;25.618;2023-03-14T10:04:50;21.40;22.00
68354;DHT22;55274;43.060;25.618;2023-03-14T10:07:27;21.80;22.30
68354;DHT22;55274;43.060;25.618;2023-03-14T10:09:54;21.70;21.00
68354;DHT22;55274;43.060;25.618;2023-03-14T10:12:20;21.70;22.10
68354;DHT22;55274;43.060;25.618;2023-03-14T10:14:55;21.90;23.40
68354;DHT22;55274;43.060;25.618;2023-03-14T10:17:21;21.60;21.90
68354;DHT22;55274;43.060;25.618;2023-03-14T10:20:00;21.80;21.80
68354;DHT22;55274;43.060;25.618;2023-03-14T10:22:31;21.50;23.40
68354;DHT22;55274;43.060;25.618;2023-03-14T10:25:02;21.50;21.60
68354;DHT22;55274;43.060;25.618;2023-03-14T10:27:30;21.70;22.20
68354;DHT22;55274;43.060;25.618;2023-03-14T10:30:01;21.10;22.60
68354;DHT22;55274;43.060;25.618;2023-03-14T10:32:36;20.90;22.50
68354;DHT22;55274;43.060;25.618;2023-03-14T10:35:17;21.00;22.50
68354;DHT22;55274;43.060;25.618;2023-03-14T10:37:58;21.50;21.40
68354;DHT22;55274;43.060;25.618;2023-03-14T10:40:34;21.60;20.30
68354;DHT22;55274;43.060;25.618;2023-03-14T10:43:05;21.60;21.50
68354;DHT22;55274;43.060;25.618;2023-03-14T10:51:06;21.60;21.10
68354;DHT22;55274;43.060;25.618;2023-03-14T10:53:47;21.90;21.50
68354;DHT22;55274;43.060;25.618;2023-03-14T10:56:19;21.50;20.60
68354;DHT22;55274;43.060;25.618;2023-03-14T10:58:47;21.70;20.30
68354;DHT22;55274;43.060;25.618;2023-03-14T11:03:56;21.50;21.70
68354;DHT22;55274;43.060;25.618;2023-03-14T11:06:36;21.50;21.50
68354;DHT22;55274;43.060;25.618;2023-03-14T11:09:28;21.80;20.00
68354;DHT22;55274;43.060;25.618;2023-03-14T11:12:08;22.10;20.80
68354;DHT22;55274;43.060;25.618;2023-03-14T11:14:43;22.20;20.90
68354;DHT22;55274;43.060;25.618;2023-03-14T11:17:38;21.80;21.40
68354;DHT22;55274;43.060;25.618;2023-03-14T11:23:16;21.70;21.50
68354;DHT22;55274;43.060;25.618;2023-03-14T11:28:35;21.70;22.40
68354;DHT22;55274;43.060;25.618;2023-03-14T11:31:28;21.60;22.50
68354;DHT22;55274;43.060;25.618;2023-03-14T11:34:43;21.50;23.00
68354;DHT22;55274;43.060;25.618;2023-03-14T11:36:51;21.10;22.50
68354;DHT22;55274;43.060;25.618;2023-03-14T11:39:20;21.20;23.30
68354;DHT22;55274;43.060;25.618;2023-03-14T11:41:52;21.00;22.70
68354;DHT22;55274;43.060;25.618;2023-03-14T11:44:31;21.20;22.80
68354;DHT22;55274;43.060;25.618;2023-03-14T11:49:40;21.20;21.80
68354;DHT22;55274;43.060;25.618;2023-03-14T11:55:17;21.00;21.90
68354;DHT22;55274;43.060;25.618;2023-03-14T11:57:45;21.00;22.90
68354;DHT22;55274;43.060;25.618;2023-03-14T12:00:20;21.10;23.90
68354;DHT22;55274;43.060;25.618;2023-03-14T12:13:14;20.90;24.50
68354;DHT22;55274;43.060;25.618;2023-03-14T12:16:19;20.80;24.20
68354;DHT22;55274;43.060;25.618;2023-03-14T12:18:45;20.60;24.70
68354;DHT22;55274;43.060;25.618;2023-03-14T12:21:12;20.40;25.30
68354;DHT22;55274;43.060;25.618;2023-03-14T12:23:54;20.20;25.90
68354;DHT22;55274;43.060;25.618;2023-03-14T12:26:26;20.20;25.50
68354;DHT22;55274;43.060;25.618;2023-03-14T12:42:20;20.00;26.70
68354;DHT22;55274;43.060;25.618;2023-03-14T12:44:48;20.10;27.40
68354;DHT22;55274;43.060;25.618;2023-03-14T12:50:13;20.10;26.70
68354;DHT22;55274;43.060;25.618;2023-03-14T13:01:19;20.00;28.70
68354;DHT22;55274;43.060;25.618;2023-03-14T13:03:46;19.90;28.40
68354;DHT22;55274;43.060;25.618;2023-03-14T13:06:13;19.80;28.90
68354;DHT22;55274;43.060;25.618;2023-03-14T13:12:09;19.80;29.30
68354;DHT22;55274;43.060;25.618;2023-03-14T13:14:41;19.70;29.60
68354;DHT22;55274;43.060;25.618;2023-03-14T13:17:11;19.60;30.00
68354;DHT22;55274;43.060;25.618;2023-03-14T13:19:38;19.50;29.60
68354;DHT22;55274;43.060;25.618;2023-03-14T13:22:22;19.40;30.20
68354;DHT22;55274;43.060;25.618;2023-03-14T13:24:49;19.40;30.80
68354;DHT22;55274;43.060;25.618;2023-03-14T13:27:20;19.40;29.80
68354;DHT22;55274;43.060;25.618;2023-03-14T13:29:49;19.40;30.50
68354;DHT22;55274;43.060;25.618;2023-03-14T13:32:21;19.30;30.70
68354;DHT22;55274;43.060;25.618;2023-03-14T13:34:47;19.20;30.70
68354;DHT22;55274;43.060;25.618;2023-03-14T13:37:20;19.30;31.10
68354;DHT22;55274;43.060;25.618;2023-03-14T13:39:50;19.40;31.00
68354;DHT22;55274;43.060;25.618;2023-03-14T13:42:17;19.20;31.40
68354;DHT22;55274;43.060;25.618;2023-03-14T13:44:42;19.20;30.90
68354;DHT22;55274;43.060;25.618;2023-03-14T13:47:15;19.20;31.50
68354;DHT22;55274;43.060;25.618;2023-03-14T13:49:42;19.20;31.20
68354;DHT22;55274;43.060;25.618;2023-03-14T13:52:30;19.10;31.50
68354;DHT22;55274;43.060;25.618;2023-03-14T13:54:59;19.00;31.90
68354;DHT22;55274;43.060;25.618;2023-03-14T13:57:25;18.90;32.10
68354;DHT22;55274;43.060;25.618;2023-03-14T14:00:05;18.90;32.70
68354;DHT22;55274;43.060;25.618;2023-03-14T14:02:33;19.00;32.90
68354;DHT22;55274;43.060;25.618;2023-03-14T14:05:00;18.90;32.50
68354;DHT22;55274;43.060;25.618;2023-03-14T14:07:26;18.80;32.40
68354;DHT22;55274;43.060;25.618;2023-03-14T14:09:54;18.70;32.80
68354;DHT22;55274;43.060;25.618;2023-03-14T14:12:36;18.70;33.10
68354;DHT22;55274;43.060;25.618;2023-03-14T14:15:10;18.60;33.30
68354;DHT22;55274;43.060;25.618;2023-03-14T14:20:44;18.40;33.70
68354;DHT22;55274;43.060;25.618;2023-03-14T14:23:19;18.40;33.40
68354;DHT22;55274;43.060;25.618;2023-03-14T14:25:51;18.20;33.60
68354;DHT22;55274;43.060;25.618;2023-03-14T14:28:35;18.20;33.30
68354;DHT22;55274;43.060;25.618;2023-03-14T14:31:19;18.20;33.20
68354;DHT22;55274;43.060;25.618;2023-03-14T14:33:59;18.00;33.60
68354;DHT22;55274;43.060;25.618;2023-03-14T14:36:37;18.00;33.60
68354;DHT22;55274;43.060;25.618;2023-03-14T14:41:40;17.90;33.80
68354;DHT22;55274;43.060;25.618;2023-03-14T14:44:07;17.80;33.70
68354;DHT22;55274;43.060;25.618;2023-03-14T14:46:35;17.70;33.90
68354;DHT22;55274;43.060;25.618;2023-03-14T14:49:10;17.60;34.10
68354;DHT22;55274;43.060;25.618;2023-03-14T14:51:48;17.50;34.30
68354;DHT22;55274;43.060;25.618;2023-03-14T14:54:37;17.40;34.80
68354;DHT22;55274;43.060;25.618;2023-03-14T14:57:03;17.30;34.90
68354;DHT22;55274;43.060;25.618;2023-03-14T14:59:29;17.20;34.70
68354;DHT22;55274;43.060;25.618;2023-03-14T15:02:00;17.20;35.10
68354;DHT22;55274;43.060;25.618;2023-03-14T15:04:26;17.10;35.40
68354;DHT22;55274;43.060;25.618;2023-03-14T15:06:52;17.00;35.30
68354;DHT22;55274;43.060;25.618;2023-03-14T15:09:19;16.80;35.10
68354;DHT22;55274;43.060;25.618;2023-03-14T15:11:46;16.80;36.10
68354;DHT22;55274;43.060;25.618;2023-03-14T15:14:12;16.70;36.40
68354;DHT22;55274;43.060;25.618;2023-03-14T15:16:39;16.60;36.00
68354;DHT22;55274;43.060;25.618;2023-03-14T15:19:29;16.50;36.80
68354;DHT22;55274;43.060;25.618;2023-03-14T15:21:58;16.40;36.20
68354;DHT22;55274;43.060;25.618;2023-03-14T15:24:24;16.30;36.60
68354;DHT22;55274;43.060;25.618;2023-03-14T15:26:50;16.20;36.60
68354;DHT22;55274;43.060;25.618;2023-03-14T15:29:16;16.10;36.70
68354;DHT22;55274;43.060;25.618;2023-03-14T15:31:42;16.10;36.50
68354;DHT22;55274;43.060;25.618;2023-03-14T15:34:10;16.00;36.40
68354;DHT22;55274;43.060;25.618;2023-03-14T15:36:37;15.90;36.80
68354;DHT22;55274;43.060;25.618;2023-03-14T15:39:05;15.80;37.20
68354;DHT22;55274;43.060;25.618;2023-03-14T15:41:31;15.80;37.30
68354;DHT22;55274;43.060;25.618;2023-03-14T15:43:57;15.60;37.00
68354;DHT22;55274;43.060;25.618;2023-03-14T15:46:23;15.50;37.30
68354;DHT22;55274;43.060;25.618;2023-03-14T15:48:50;15.40;37.80
68354;DHT22;55274;43.060;25.618;2023-03-14T15:51:17;15.30;37.50
68354;DHT22;55274;43.060;25.618;2023-03-14T15:53:43;15.20;37.50
68354;DHT22;55274;43.060;25.618;2023-03-14T15:56:13;15.10;37.70
68354;DHT22;55274;43.060;25.618;2023-03-14T15:58:39;15.00;37.90
68354;DHT22;55274;43.060;25.618;2023-03-14T16:01:06;14.90;37.80
68354;DHT22;55274;43.060;25.618;2023-03-14T16:03:35;14.80;38.10
68354;DHT22;55274;43.060;25.618;2023-03-14T16:06:00;14.80;38.00
68354;DHT22;55274;43.060;25.618;2023-03-14T16:08:26;14.70;38.30
68354;DHT22;55274;43.060;25.618;2023-03-14T16:10:54;14.60;38.30
68354;DHT22;55274;43.060;25.618;2023-03-14T16:13:20;14.60;38.70
68354;DHT22;55274;43.060;25.618;2023-03-14T16:15:57;14.50;39.00
68354;DHT22;55274;43.060;25.618;2023-03-14T16:18:23;14.40;39.00
68354;DHT22;55274;43.060;25.618;2023-03-14T16:20:57;14.30;38.90
68354;DHT22;55274;43.060;25.618;2023-03-14T16:23:23;14.30;38.90
68354;DHT22;55274;43.060;25.618;2023-03-14T16:25:50;14.20;39.60
68354;DHT22;55274;43.060;25.618;2023-03-14T16:28:16;14.10;39.00
68354;DHT22;55274;43.060;25.618;2023-03-14T16:30:41;14.10;39.30
68354;DHT22;55274;43.060;25.618;2023-03-14T16:33:08;14.00;39.30
68354;DHT22;55274;43.060;25.618;2023-03-14T16:35:38;14.00;39.10
68354;DHT22;55274;43.060;25.618;2023-03-14T16:38:04;13.90;39.30
68354;DHT22;55274;43.060;25.618;2023-03-14T16:40:30;13.80;39.80
68354;DHT22;55274;43.060;25.618;2023-03-14T16:42:56;13.70;39.80
68354;DHT22;55274;43.060;25.618;2023-03-14T16:45:22;13.60;39.60
68354;DHT22;55274;43.060;25.618;2023-03-14T16:48:49;13.60;39.80
68354;DHT22;55274;43.060;25.618;2023-03-14T16:51:15;13.50;40.30
68354;DHT22;55274;43.060;25.618;2023-03-14T16:53:41;13.40;40.00
68354;DHT22;55274;43.060;25.618;2023-03-14T16:56:07;13.40;39.90
68354;DHT22;55274;43.060;25.618;2023-03-14T16:58:34;13.30;39.80
68354;DHT22;55274;43.060;25.618;2023-03-14T17:01:07;13.30;40.00
68354;DHT22;55274;43.060;25.618;2023-03-14T17:03:42;13.20;39.70
68354;DHT22;55274;43.060;25.618;2023-03-14T17:06:13;13.20;40.00
68354;DHT22;55274;43.060;25.618;2023-03-14T17:08:39;13.10;40.50
68354;DHT22;55274;43.060;25.618;2023-03-14T17:11:05;13.10;40.60
68354;DHT22;55274;43.060;25.618;2023-03-14T17:13:32;13.00;40.30
68354;DHT22;55274;43.060;25.618;2023-03-14T17:15:59;12.90;41.50
68354;DHT22;55274;43.060;25.618;2023-03-14T17:18:27;12.90;40.40
68354;DHT22;55274;43.060;25.618;2023-03-14T17:20:54;12.80;40.30
68354;DHT22;55274;43.060;25.618;2023-03-14T17:23:21;12.80;40.20
68354;DHT22;55274;43.060;25.618;2023-03-14T17:25:48;12.80;39.90
68354;DHT22;55274;43.060;25.618;2023-03-14T17:28:15;12.70;40.60
68354;DHT22;55274;43.060;25.618;2023-03-14T17:30:41;12.60;40.20